createdAt,value
2023-03-13T00:01:40.722Z,5.30
2023-03-13T00:04:08.004Z,5.20
2023-03-13T00:06:39.548Z,5.20
2023-03-13T00:09:09.379Z,5.20
2023-03-13T00:11:36.701Z,5.20
2023-03-13T00:14:05.300Z,5.20
2023-03-13T00:16:34.643Z,5.10
2023-03-13T00:19:02.001Z,5.10
2023-03-13T00:21:30.185Z,5.10
2023-03-13T00:23:59.584Z,5.10
2023-03-13T00:26:28.255Z,5.10
2023-03-13T00:28:55.997Z,5.00
2023-03-13T00:31:28.815Z,4.90
2023-03-13T00:34:00.240Z,4.90
2023-03-13T00:36:30.020Z,4.90
2023-03-13T00:38:59.399Z,4.90
2023-03-13T00:41:29.949Z,4.90
2023-03-13T00:43:57.283Z,4.90
2023-03-13T00:46:27.084Z,4.90
2023-03-13T00:48:54.516Z,4.80
2023-03-13T00:51:27.354Z,4.70
2023-03-13T00:53:56.604Z,4.70
2023-03-13T00:56:24.034Z,4.80
2023-03-13T00:58:51.557Z,4.90
2023-03-13T01:01:28.526Z,4.90
2023-03-13T01:04:01.695Z,4.80
2023-03-13T01:06:33.028Z,4.80
2023-03-13T01:09:00.392Z,4.80
2023-03-13T01:11:30.344Z,4.70
2023-03-13T01:14:00.205Z,4.70
2023-03-13T01:16:29.873Z,4.70
2023-03-13T01:19:00.871Z,4.70
2023-03-13T01:21:28.873Z,4.70
2023-03-13T01:23:56.989Z,4.70
2023-03-13T01:26:25.236Z,4.70
2023-03-13T01:28:55.292Z,4.70
2023-03-13T01:31:26.248Z,4.70
2023-03-13T01:33:58.825Z,4.70
2023-03-13T01:36:27.448Z,4.90
2023-03-13T01:38:56.997Z,4.80
2023-03-13T01:41:25.424Z,4.70
2023-03-13T01:43:53.235Z,4.70
2023-03-13T01:46:24.859Z,4.80
2023-03-13T01:49:12.366Z,4.80
2023-03-13T01:52:12.982Z,4.80
2023-03-13T01:54:55.571Z,4.80
2023-03-13T01:57:28.274Z,4.80
2023-03-13T02:00:27.023Z,4.80
2023-03-13T02:03:00.796Z,4.80
2023-03-13T02:05:30.645Z,4.80
2023-03-13T02:08:06.144Z,4.80
2023-03-13T02:10:38.795Z,4.80
2023-03-13T02:13:05.963Z,4.80
2023-03-13T02:15:34.401Z,4.70
2023-03-13T02:18:01.999Z,4.70
2023-03-13T02:20:29.283Z,4.70
2023-03-13T02:23:06.021Z,4.80
2023-03-13T02:25:42.170Z,4.80
2023-03-13T02:28:15.389Z,4.80
2023-03-13T02:30:44.367Z,4.70
2023-03-13T02:33:14.054Z,4.70
2023-03-13T02:35:44.106Z,4.70
2023-03-13T02:38:18.239Z,4.80
2023-03-13T02:40:49.090Z,4.70
2023-03-13T02:43:23.214Z,4.80
2023-03-13T02:46:09.198Z,4.70
2023-03-13T02:48:46.480Z,4.70
2023-03-13T02:51:41.344Z,4.70
2023-03-13T02:54:14.816Z,4.60
2023-03-13T02:56:45.495Z,4.70
2023-03-13T02:59:13.097Z,4.70
2023-03-13T03:01:43.271Z,4.90
2023-03-13T03:04:10.500Z,5.00
2023-03-13T03:06:37.724Z,5.00
2023-03-13T03:09:06.117Z,5.30
2023-03-13T03:11:36.166Z,5.30
2023-03-13T03:14:08.691Z,5.20
2023-03-13T03:16:39.870Z,5.10
2023-03-13T03:19:07.194Z,5.30
2023-03-13T03:21:35.189Z,5.40
2023-03-13T03:24:02.442Z,5.30
2023-03-13T03:26:29.536Z,5.20
2023-03-13T03:28:56.933Z,5.20
2023-03-13T03:31:24.721Z,5.10
2023-03-13T03:33:51.933Z,5.20
2023-03-13T03:36:22.768Z,5.30
2023-03-13T03:38:51.022Z,5.30
2023-03-13T03:41:21.721Z,5.30
2023-03-13T03:43:49.580Z,5.30
2023-03-13T03:46:20.466Z,5.40
2023-03-13T03:48:47.655Z,5.40
2023-03-13T03:51:14.791Z,5.40
2023-03-13T03:53:44.187Z,5.40
2023-03-13T03:56:11.605Z,5.30
2023-03-13T03:58:44.813Z,5.30
2023-03-13T04:01:17.621Z,5.10
2023-03-13T04:03:44.941Z,5.20
2023-03-13T04:06:13.364Z,5.20
2023-03-13T04:08:40.702Z,5.10
2023-03-13T04:11:10.860Z,5.20
2023-03-13T04:13:41.430Z,5.30
2023-03-13T04:16:09.776Z,5.30
2023-03-13T04:18:37.742Z,5.30
2023-03-13T04:21:06.458Z,5.40
2023-03-13T04:23:44.386Z,5.40
2023-03-13T04:26:13.307Z,5.40
2023-03-13T04:28:41.330Z,5.40
2023-03-13T04:31:10.251Z,5.50
2023-03-13T04:33:59.257Z,5.50
2023-03-13T04:36:48.918Z,5.40
2023-03-13T04:39:36.278Z,5.50
2023-03-13T04:42:14.255Z,5.50
2023-03-13T04:44:57.284Z,5.60
2023-03-13T04:48:02.904Z,5.60
2023-03-13T04:50:49.844Z,5.60
2023-03-13T04:57:56.717Z,5.50
2023-03-13T05:00:39.778Z,5.50
2023-03-13T05:03:17.389Z,5.40
2023-03-13T05:06:16.950Z,5.60
2023-03-13T05:09:06.485Z,5.50
2023-03-13T05:11:59.955Z,5.60
2023-03-13T05:14:47.230Z,5.70
2023-03-13T05:17:46.955Z,5.60
2023-03-13T05:20:29.798Z,5.60
2023-03-13T05:23:13.197Z,5.70
2023-03-13T05:25:55.063Z,5.60
2023-03-13T05:28:51.701Z,5.50
2023-03-13T05:31:34.914Z,5.60
2023-03-13T05:34:17.469Z,5.60
2023-03-13T05:37:03.294Z,5.60
2023-03-13T05:39:50.965Z,5.60
2023-03-13T05:42:38.286Z,5.60
2023-03-13T05:45:37.657Z,5.60
2023-03-13T05:48:31.341Z,5.60
2023-03-13T05:51:24.961Z,5.60
2023-03-13T05:54:15.022Z,5.60
2023-03-13T05:57:14.950Z,5.60
2023-03-13T05:59:51.605Z,5.60
2023-03-13T06:02:38.980Z,5.60
2023-03-13T06:05:08.400Z,5.60
2023-03-13T06:07:36.559Z,5.60
2023-03-13T06:10:04.837Z,5.70
2023-03-13T06:12:32.988Z,5.60
2023-03-13T06:15:00.821Z,5.60
2023-03-13T06:17:44.986Z,5.70
2023-03-13T06:20:13.048Z,5.70
2023-03-13T06:22:41.772Z,5.70
2023-03-13T06:25:10.226Z,5.80
2023-03-13T06:27:37.620Z,5.80
2023-03-13T06:30:05.371Z,5.80
2023-03-13T06:32:32.947Z,5.80
2023-03-13T06:35:00.369Z,5.80
2023-03-13T06:37:27.766Z,5.80
2023-03-13T06:39:55.242Z,5.80
2023-03-13T06:42:22.652Z,5.80
2023-03-13T06:44:49.984Z,5.80
2023-03-13T06:47:17.424Z,5.80
2023-03-13T06:49:44.802Z,5.80
2023-03-13T06:52:12.183Z,5.80
2023-03-13T06:54:39.534Z,5.90
2023-03-13T06:57:06.943Z,5.80
2023-03-13T06:59:34.346Z,5.90
2023-03-13T07:02:01.751Z,5.80
2023-03-13T07:04:29.212Z,5.90
2023-03-13T07:06:56.977Z,5.90
2023-03-13T07:09:24.387Z,5.80
2023-03-13T07:11:51.824Z,5.80
2023-03-13T07:14:19.140Z,5.80
2023-03-13T07:16:46.936Z,5.80
2023-03-13T07:19:15.409Z,5.80
2023-03-13T07:21:44.413Z,5.90
2023-03-13T07:24:11.858Z,5.90
2023-03-13T07:26:40.332Z,5.90
2023-03-13T07:29:08.617Z,5.90
2023-03-13T07:31:36.195Z,5.90
2023-03-13T07:34:03.818Z,5.90
2023-03-13T07:36:31.726Z,5.90
2023-03-13T07:38:59.347Z,6.00
2023-03-13T07:41:27.082Z,6.00
2023-03-13T07:43:56.565Z,6.00
2023-03-13T07:46:24.307Z,6.10
2023-03-13T07:48:52.930Z,6.10
2023-03-13T07:51:36.809Z,6.20
2023-03-13T07:54:08.372Z,6.20
2023-03-13T07:56:35.899Z,6.30
2023-03-13T07:59:03.374Z,6.40
2023-03-13T08:01:31.427Z,6.30
2023-03-13T08:04:02.432Z,6.30
2023-03-13T08:06:33.937Z,6.40
2023-03-13T08:09:02.580Z,6.40
2023-03-13T08:11:30.226Z,6.40
2023-03-13T08:13:58.610Z,6.40
2023-03-13T08:16:32.267Z,6.50
2023-03-13T08:19:01.232Z,6.50
2023-03-13T08:21:31.133Z,6.40
2023-03-13T08:24:01.841Z,6.70
2023-03-13T08:26:31.328Z,6.60
2023-03-13T08:29:01.477Z,6.70
2023-03-13T08:31:37.948Z,6.70
2023-03-13T08:34:05.831Z,6.80
2023-03-13T08:36:37.091Z,6.80
2023-03-13T08:39:13.685Z,6.90
2023-03-13T08:41:41.616Z,7.00
2023-03-13T08:44:12.175Z,7.00
2023-03-13T08:46:40.156Z,7.10
2023-03-13T08:49:08.774Z,7.20
2023-03-13T08:51:36.801Z,7.20
2023-03-13T08:54:05.451Z,7.10
2023-03-13T08:56:33.684Z,7.20
2023-03-13T08:59:02.864Z,7.30
2023-03-13T09:01:33.366Z,7.30
2023-03-13T09:04:04.213Z,7.30
2023-03-13T09:06:33.967Z,7.20
2023-03-13T09:09:01.945Z,7.30
2023-03-13T09:11:29.573Z,7.40
2023-03-13T09:13:59.496Z,7.30
2023-03-13T09:16:29.874Z,7.50
2023-03-13T09:18:59.028Z,7.50
2023-03-13T09:21:29.736Z,7.60
2023-03-13T09:23:58.100Z,7.60
2023-03-13T09:26:26.432Z,7.70
2023-03-13T09:28:54.623Z,7.90
2023-03-13T09:31:25.217Z,8.00
2023-03-13T09:33:53.420Z,8.00
2023-03-13T09:36:22.578Z,8.00
2023-03-13T09:38:55.345Z,8.00
2023-03-13T09:41:53.765Z,8.20
2023-03-13T09:44:35.928Z,8.30
2023-03-13T09:47:19.034Z,8.40
2023-03-13T09:49:54.489Z,8.50
2023-03-13T09:52:26.679Z,8.60
2023-03-13T09:55:29.230Z,8.70
2023-03-13T09:58:00.044Z,8.80
2023-03-13T10:00:48.666Z,8.80
2023-03-13T10:03:23.868Z,9.00
2023-03-13T10:05:57.886Z,9.10
2023-03-13T10:08:31.957Z,9.00
2023-03-13T10:11:05.204Z,9.10
2023-03-13T10:13:50.099Z,9.30
2023-03-13T10:16:50.160Z,9.20
2023-03-13T10:19:28.273Z,9.30
2023-03-13T10:21:57.310Z,9.40
2023-03-13T10:24:36.975Z,9.50
2023-03-13T10:27:04.374Z,9.50
2023-03-13T10:29:32.356Z,9.50
2023-03-13T10:32:05.678Z,9.50
2023-03-13T10:34:55.920Z,9.50
2023-03-13T10:37:32.901Z,9.60
2023-03-13T10:40:23.425Z,9.50
2023-03-13T10:42:53.988Z,9.50
2023-03-13T10:45:25.195Z,9.60
2023-03-13T10:47:57.437Z,9.40
2023-03-13T10:50:27.230Z,9.50
2023-03-13T10:52:57.853Z,9.40
2023-03-13T10:55:26.524Z,9.40
2023-03-13T10:58:03.648Z,9.60
2023-03-13T11:00:37.320Z,9.70
2023-03-13T11:03:14.620Z,9.50
2023-03-13T11:05:43.469Z,9.50
2023-03-13T11:08:21.997Z,9.60
2023-03-13T11:10:58.911Z,9.70
2023-03-13T11:13:43.861Z,9.60
2023-03-13T11:16:21.715Z,9.90
2023-03-13T11:19:10.848Z,9.90
2023-03-13T11:21:58.896Z,10.00
2023-03-13T11:24:34.560Z,10.40
2023-03-13T11:27:08.829Z,10.40
2023-03-13T11:30:04.502Z,10.50
2023-03-13T11:32:50.757Z,10.70
2023-03-13T11:35:40.013Z,10.80
2023-03-13T11:38:34.095Z,10.80
2023-03-13T11:41:07.658Z,11.00
2023-03-13T11:44:02.401Z,11.00
2023-03-13T11:47:08.464Z,11.10
2023-03-13T11:49:41.920Z,11.30
2023-03-13T11:52:44.475Z,11.30
2023-03-13T11:55:28.219Z,11.30
2023-03-13T11:58:17.502Z,11.40
2023-03-13T12:00:53.980Z,11.40
2023-03-13T12:03:52.587Z,11.50
2023-03-13T12:06:31.630Z,11.40
2023-03-13T12:09:28.086Z,11.60
2023-03-13T12:12:18.933Z,11.80
2023-03-13T12:14:53.015Z,12.30
2023-03-13T12:17:35.365Z,12.60
2023-03-13T12:20:15.241Z,12.60
2023-03-13T12:22:52.291Z,12.50
2023-03-13T12:25:26.405Z,12.50
2023-03-13T12:28:01.638Z,12.50
2023-03-13T12:30:39.790Z,12.60
2023-03-13T12:33:24.681Z,12.80
2023-03-13T12:36:04.380Z,12.70
2023-03-13T12:38:43.190Z,12.60
2023-03-13T12:41:33.331Z,12.60
2023-03-13T12:44:08.690Z,12.50
2023-03-13T12:46:46.166Z,12.40
2023-03-13T12:49:46.405Z,12.20
2023-03-13T12:52:19.668Z,12.10
2023-03-13T12:55:00.986Z,12.00
2023-03-13T12:57:54.469Z,12.10
2023-03-13T13:00:25.397Z,12.10
2023-03-13T13:03:16.517Z,12.00
2023-03-13T13:06:06.578Z,12.10
2023-03-13T13:08:38.343Z,12.20
2023-03-13T13:11:39.679Z,12.70
2023-03-13T13:14:19.067Z,13.00
2023-03-13T13:17:28.200Z,13.80
2023-03-13T13:19:56.598Z,14.30
2023-03-13T13:22:39.046Z,14.40
2023-03-13T13:25:18.449Z,14.70
2023-03-13T13:27:47.045Z,14.70
2023-03-13T13:30:17.622Z,15.10
2023-03-13T13:32:53.369Z,15.80
2023-03-13T13:35:20.815Z,15.30
2023-03-13T13:37:49.728Z,14.40
2023-03-13T13:40:17.217Z,14.50
2023-03-13T13:43:03.003Z,14.10
2023-03-13T13:45:38.704Z,14.10
2023-03-13T13:48:28.212Z,15.10
2023-03-13T13:51:18.833Z,15.00
2023-03-13T13:53:59.928Z,15.00
2023-03-13T13:56:36.506Z,14.90
2023-03-13T13:59:24.998Z,14.30
2023-03-13T14:02:32.435Z,14.10
2023-03-13T14:05:15.872Z,14.20
2023-03-13T14:07:48.955Z,14.50
2023-03-13T14:10:42.256Z,14.60
2023-03-13T14:13:24.747Z,14.70
2023-03-13T14:15:53.519Z,14.70
2023-03-13T14:18:22.808Z,15.10
2023-03-13T14:20:50.214Z,15.20
2023-03-13T14:23:49.312Z,15.80
2023-03-13T14:26:21.091Z,16.00
2023-03-13T14:29:08.296Z,16.00
2023-03-13T14:31:38.666Z,16.00
2023-03-13T14:34:09.300Z,16.30
2023-03-13T14:36:46.864Z,15.90
2023-03-13T14:39:32.972Z,15.80
2023-03-13T14:42:04.630Z,15.80
2023-03-13T14:44:37.374Z,15.60
2023-03-13T14:47:25.638Z,15.60
2023-03-13T14:50:05.283Z,15.40
2023-03-13T14:52:34.225Z,15.20
2023-03-13T14:55:04.476Z,14.90
2023-03-13T14:57:33.128Z,14.90
2023-03-13T15:00:28.464Z,14.80
2023-03-13T15:03:22.047Z,14.70
2023-03-13T15:06:15.154Z,14.60
2023-03-13T15:08:45.721Z,14.50
2023-03-13T15:11:30.919Z,14.40
2023-03-13T15:13:58.639Z,14.40
2023-03-13T15:16:27.747Z,14.40
2023-03-13T15:18:56.451Z,14.30
2023-03-13T15:21:31.273Z,14.30
2023-03-13T15:24:11.122Z,14.40
2023-03-13T15:26:38.643Z,14.40
2023-03-13T15:29:06.142Z,14.40
2023-03-13T15:31:33.648Z,14.60
2023-03-13T15:34:02.037Z,14.60
2023-03-13T15:36:30.888Z,14.80
2023-03-13T15:38:58.577Z,14.70
2023-03-13T15:41:26.141Z,14.60
2023-03-13T15:43:55.560Z,14.40
2023-03-13T15:46:25.196Z,14.40
2023-03-13T15:48:54.227Z,14.30
2023-03-13T15:51:21.910Z,14.20
2023-03-13T15:53:49.471Z,14.10
2023-03-13T15:56:20.187Z,14.00
2023-03-13T15:58:48.631Z,13.90
2023-03-13T16:01:17.492Z,13.90
2023-03-13T16:03:46.526Z,13.80
2023-03-13T16:06:29.783Z,13.80
2023-03-13T16:08:58.531Z,13.70
2023-03-13T16:11:26.552Z,13.90
2023-03-13T16:13:54.607Z,14.00
2023-03-13T16:16:23.487Z,14.10
2023-03-13T16:18:52.573Z,14.10
2023-03-13T16:21:28.492Z,14.00
2023-03-13T16:23:56.403Z,13.80
2023-03-13T16:26:26.514Z,13.70
2023-03-13T16:28:55.495Z,13.60
2023-03-13T16:31:28.909Z,13.60
2023-03-13T16:33:57.821Z,13.60
2023-03-13T16:36:31.450Z,13.40
2023-03-13T16:39:00.718Z,13.40
2023-03-13T16:41:29.189Z,13.30
2023-03-13T16:43:57.426Z,13.20
2023-03-13T16:46:37.623Z,13.10
2023-03-13T16:49:05.394Z,13.00
2023-03-13T16:51:33.391Z,12.90
2023-03-13T16:54:00.880Z,12.90
2023-03-13T16:56:35.923Z,12.80
2023-03-13T16:59:08.393Z,12.70
2023-03-13T17:01:36.640Z,12.60
2023-03-13T17:04:04.171Z,12.60
2023-03-13T17:06:37.893Z,12.60
2023-03-13T17:09:10.928Z,12.50
2023-03-13T17:11:38.401Z,12.40
2023-03-13T17:14:05.850Z,12.50
2023-03-13T17:16:36.063Z,12.30
2023-03-13T17:19:04.100Z,12.30
2023-03-13T17:21:32.931Z,12.20
2023-03-13T17:24:00.748Z,12.20
2023-03-13T17:26:32.633Z,12.10
2023-03-13T17:29:00.724Z,12.10
2023-03-13T17:31:30.964Z,12.10
2023-03-13T17:33:58.416Z,12.10
2023-03-13T17:36:28.268Z,12.10
2023-03-13T17:38:58.779Z,12.00
2023-03-13T17:41:29.594Z,11.90
2023-03-13T17:43:57.119Z,11.90
2023-03-13T17:46:37.060Z,11.70
2023-03-13T17:49:05.018Z,11.70
2023-03-13T17:51:34.488Z,11.70
2023-03-13T17:54:02.316Z,11.70
2023-03-13T17:56:37.644Z,11.60
2023-03-13T17:59:23.716Z,11.50
2023-03-13T18:01:51.251Z,11.40
2023-03-13T18:04:18.837Z,11.40
2023-03-13T18:06:48.942Z,11.30
2023-03-13T18:09:20.942Z,11.40
2023-03-13T18:11:49.833Z,11.40
2023-03-13T18:14:17.222Z,11.20
2023-03-13T18:16:50.610Z,11.20
2023-03-13T18:19:25.788Z,11.20
2023-03-13T18:21:55.974Z,11.10
2023-03-13T18:24:23.767Z,11.00
2023-03-13T18:26:51.427Z,11.10
2023-03-13T18:29:26.751Z,11.00
2023-03-13T18:31:58.995Z,11.00
2023-03-13T18:34:27.640Z,11.00
2023-03-13T18:36:55.998Z,11.00
2023-03-13T18:39:23.508Z,11.00
2023-03-13T18:41:52.847Z,10.90
2023-03-13T18:44:21.263Z,10.90
2023-03-13T18:46:49.316Z,10.90
2023-03-13T18:49:23.705Z,10.90
2023-03-13T18:51:54.087Z,10.90
2023-03-13T18:54:21.695Z,10.90
2023-03-13T18:56:49.072Z,10.80
2023-03-13T18:59:21.021Z,10.80
2023-03-13T19:01:49.278Z,10.70
2023-03-13T19:04:17.620Z,10.70
2023-03-13T19:06:48.487Z,10.70
2023-03-13T19:09:42.119Z,10.70
2023-03-13T19:12:10.914Z,10.60
2023-03-13T19:14:38.678Z,10.60
2023-03-13T19:17:12.262Z,10.60
2023-03-13T19:19:39.823Z,10.50
2023-03-13T19:22:13.057Z,10.50
2023-03-13T19:24:40.532Z,10.50
2023-03-13T19:27:10.612Z,10.50
2023-03-13T19:29:38.083Z,10.50
2023-03-13T19:32:07.569Z,10.50
2023-03-13T19:34:35.135Z,10.50
2023-03-13T19:37:02.605Z,10.50
2023-03-13T19:39:29.977Z,10.50
2023-03-13T19:41:58.674Z,10.50
2023-03-13T19:44:26.273Z,10.40
2023-03-13T19:46:54.835Z,10.30
2023-03-13T19:49:22.208Z,10.30
2023-03-13T19:51:49.866Z,10.30
2023-03-13T19:54:17.283Z,10.30
2023-03-13T19:56:47.904Z,10.30
2023-03-13T19:59:23.357Z,10.30
2023-03-13T20:01:50.983Z,10.30
2023-03-13T20:04:18.549Z,10.30
2023-03-13T20:06:46.010Z,10.30
2023-03-13T20:09:18.312Z,10.30
2023-03-13T20:11:45.949Z,10.30
2023-03-13T20:14:13.781Z,10.40
2023-03-13T20:16:41.313Z,10.60
2023-03-13T20:19:08.812Z,10.80
2023-03-13T20:21:40.649Z,10.80
2023-03-13T20:24:08.348Z,10.80
2023-03-13T20:26:36.287Z,10.80
2023-03-13T20:29:03.780Z,10.80
2023-03-13T20:31:32.641Z,10.90
2023-03-13T20:34:00.263Z,11.00
2023-03-13T20:36:28.159Z,10.90
2023-03-13T20:38:55.928Z,10.90
2023-03-13T20:41:25.968Z,10.90
2023-03-13T20:43:53.874Z,10.80
2023-03-13T20:46:21.765Z,10.80
2023-03-13T20:48:49.655Z,10.80
2023-03-13T20:51:17.171Z,10.80
2023-03-13T20:53:44.628Z,10.90
2023-03-13T20:56:12.671Z,11.30
2023-03-13T20:58:40.040Z,11.50
2023-03-13T21:01:08.111Z,11.30
2023-03-13T21:03:36.438Z,11.00
2023-03-13T21:06:11.915Z,10.80
2023-03-13T21:08:40.022Z,10.70
2023-03-13T21:11:17.399Z,10.40
2023-03-13T21:13:45.466Z,10.30
2023-03-13T21:16:13.922Z,10.10
2023-03-13T21:18:41.810Z,10.10
2023-03-13T21:21:13.401Z,10.10
2023-03-13T21:23:41.551Z,10.00
2023-03-13T21:26:09.141Z,10.00
2023-03-13T21:28:36.804Z,9.90
2023-03-13T21:31:15.918Z,9.90
2023-03-13T21:33:44.999Z,9.80
2023-03-13T21:36:13.948Z,9.80
2023-03-13T21:38:41.493Z,9.80
2023-03-13T21:41:10.328Z,9.80
2023-03-13T21:43:40.685Z,9.90
2023-03-13T21:46:12.216Z,9.90
2023-03-13T21:48:41.603Z,9.80
2023-03-13T21:51:10.593Z,9.80
2023-03-13T21:53:38.954Z,9.80
2023-03-13T21:56:06.880Z,9.90
2023-03-13T21:58:36.935Z,9.80
2023-03-13T22:01:04.585Z,9.80
2023-03-13T22:03:32.539Z,9.80
2023-03-13T22:05:59.985Z,9.80
2023-03-13T22:08:27.632Z,9.80
2023-03-13T22:10:59.979Z,9.80
2023-03-13T22:13:28.403Z,9.70
2023-03-13T22:15:56.402Z,9.70
2023-03-13T22:18:25.410Z,9.70
2023-03-13T22:20:53.395Z,9.70
2023-03-13T22:23:20.719Z,9.70
2023-03-13T22:25:48.342Z,9.70
2023-03-13T22:28:15.888Z,9.70
2023-03-13T22:30:44.907Z,9.70
2023-03-13T22:33:12.692Z,9.70
2023-03-13T22:35:40.817Z,9.70
2023-03-13T22:38:08.275Z,9.80
2023-03-13T22:40:35.663Z,9.80
2023-03-13T22:43:03.337Z,9.80
2023-03-13T22:45:32.444Z,9.80
2023-03-13T22:48:06.204Z,9.80
2023-03-13T22:50:34.860Z,9.70
2023-03-13T22:53:03.183Z,9.70
2023-03-13T22:55:33.276Z,9.70
2023-03-13T22:58:00.954Z,9.70
2023-03-13T23:00:28.398Z,9.70
2023-03-13T23:02:55.889Z,9.60
2023-03-13T23:05:23.446Z,9.60
2023-03-13T23:07:51.091Z,9.60
2023-03-13T23:10:20.872Z,9.60
2023-03-13T23:12:48.296Z,9.60
2023-03-13T23:15:15.678Z,9.50
2023-03-13T23:17:43.067Z,9.40
2023-03-13T23:20:13.402Z,9.40
2023-03-13T23:22:46.084Z,9.40
2023-03-13T23:25:14.597Z,9.40
2023-03-13T23:27:42.723Z,9.40
2023-03-13T23:30:14.005Z,9.40
2023-03-13T23:32:43.957Z,9.40
2023-03-13T23:35:12.535Z,9.30
2023-03-13T23:37:39.981Z,9.40
2023-03-13T23:40:10.638Z,9.30
2023-03-13T23:42:38.369Z,9.30
2023-03-13T23:45:06.786Z,9.30
2023-03-13T23:47:34.418Z,9.30
2023-03-13T23:50:01.840Z,9.30
2023-03-13T23:52:29.220Z,9.30
2023-03-13T23:54:56.586Z,9.30
2023-03-13T23:57:23.880Z,9.30
2023-03-13T23:59:51.906Z,9.30
